createdAt,value
2022-11-05T00:01:30.317Z,15.82
2022-11-05T00:04:15.918Z,15.38
2022-11-05T00:07:01.214Z,11.63
2022-11-05T00:09:30.682Z,11.48
2022-11-05T00:12:19.495Z,12.73
2022-11-05T00:15:04.826Z,13.25
2022-11-05T00:17:31.805Z,15.43
2022-11-05T00:19:58.592Z,13.18
2022-11-05T00:22:44.089Z,11.77
2022-11-05T00:25:19.695Z,17.67
2022-11-05T00:27:48.586Z,11.65
2022-11-05T00:30:18.644Z,16.05
2022-11-05T00:32:47.185Z,15.63
2022-11-05T00:35:14.561Z,12.45
2022-11-05T00:37:47.149Z,13.05
2022-11-05T00:40:16.565Z,15.18
2022-11-05T00:43:02.258Z,12.35
2022-11-05T00:45:30.495Z,13.15
2022-11-05T00:48:16.352Z,11.00
2022-11-05T00:50:43.334Z,11.65
2022-11-05T00:53:10.555Z,10.95
2022-11-05T00:55:39.231Z,9.65
2022-11-05T00:58:33.748Z,9.07
2022-11-05T01:03:36.311Z,8.10
2022-11-05T01:06:11.552Z,6.93
2022-11-05T01:08:39.183Z,11.02
2022-11-05T01:11:33.096Z,10.18
2022-11-05T01:14:10.260Z,11.25
2022-11-05T01:16:38.334Z,11.05
2022-11-05T01:19:07.215Z,10.05
2022-11-05T01:21:34.832Z,9.95
2022-11-05T01:24:02.115Z,9.07
2022-11-05T01:26:29.048Z,9.82
2022-11-05T01:29:00.503Z,8.85
2022-11-05T01:31:28.621Z,11.38
2022-11-05T01:33:55.502Z,10.15
2022-11-05T01:36:22.287Z,6.40
2022-11-05T01:38:49.139Z,9.05
2022-11-05T01:41:15.884Z,9.50
2022-11-05T01:43:52.350Z,10.45
2022-11-05T01:46:42.551Z,8.13
2022-11-05T01:49:37.405Z,9.15
2022-11-05T01:52:05.066Z,10.27
2022-11-05T01:54:33.267Z,8.57
2022-11-05T01:57:05.083Z,8.57
2022-11-05T01:59:35.952Z,10.82
2022-11-05T02:02:03.814Z,9.20
2022-11-05T02:04:35.664Z,8.82
2022-11-05T02:07:05.030Z,6.35
2022-11-05T02:09:57.806Z,8.35
2022-11-05T02:12:24.845Z,8.50
2022-11-05T02:14:51.597Z,8.85
2022-11-05T02:17:21.467Z,8.98
2022-11-05T02:20:10.238Z,8.27
2022-11-05T02:23:20.382Z,7.30
2022-11-05T02:26:24.425Z,6.85
2022-11-05T02:29:19.197Z,7.22
2022-11-05T02:32:00.378Z,7.30
2022-11-05T02:34:55.015Z,8.32
2022-11-05T02:37:30.526Z,7.95
2022-11-05T02:40:19.124Z,10.45
2022-11-05T02:42:54.011Z,6.55
2022-11-05T02:45:20.707Z,6.10
2022-11-05T02:47:55.528Z,5.97
2022-11-05T02:50:40.212Z,5.95
2022-11-05T02:53:15.405Z,6.30
2022-11-05T02:55:49.604Z,8.40
2022-11-05T02:58:16.430Z,7.88
2022-11-05T03:00:53.854Z,8.48
2022-11-05T03:03:32.062Z,5.72
2022-11-05T03:06:27.392Z,8.85
2022-11-05T03:09:03.270Z,7.00
2022-11-05T03:11:34.147Z,9.48
2022-11-05T03:14:15.998Z,8.23
2022-11-05T03:16:46.970Z,9.63
2022-11-05T03:19:25.879Z,9.70
2022-11-05T03:22:07.263Z,9.73
2022-11-05T03:24:37.768Z,10.48
2022-11-05T03:27:14.386Z,14.10
2022-11-05T03:29:48.296Z,10.38
2022-11-05T03:34:51.695Z,11.48
2022-11-05T03:37:23.688Z,10.23
2022-11-05T03:39:54.760Z,10.23
2022-11-05T03:42:25.959Z,11.85
2022-11-05T03:44:58.012Z,10.27
2022-11-05T03:47:32.859Z,10.15
2022-11-05T03:50:43.264Z,15.25
2022-11-05T03:53:18.439Z,11.68
2022-11-05T03:55:50.236Z,11.15
2022-11-05T03:58:19.147Z,10.90
2022-11-05T04:00:45.909Z,10.90
2022-11-05T04:03:13.014Z,9.50
2022-11-05T04:05:40.259Z,8.55
2022-11-05T04:08:25.425Z,10.05
2022-11-05T04:11:10.927Z,9.77
2022-11-05T04:13:37.679Z,10.23
2022-11-05T04:16:23.104Z,8.32
2022-11-05T04:18:49.834Z,8.90
2022-11-05T04:21:35.300Z,8.95
2022-11-05T04:24:08.264Z,8.55
2022-11-05T04:26:47.516Z,9.47
2022-11-05T04:29:32.865Z,9.75
2022-11-05T04:31:59.741Z,10.82
2022-11-05T04:34:26.528Z,10.50
2022-11-05T04:36:53.699Z,7.03
2022-11-05T04:39:21.534Z,8.52
2022-11-05T04:41:48.876Z,6.95
2022-11-05T04:44:16.856Z,5.97
2022-11-05T04:46:43.824Z,7.20
2022-11-05T04:49:10.659Z,6.05
2022-11-05T04:51:37.464Z,6.30
2022-11-05T04:54:04.303Z,5.03
2022-11-05T04:56:31.128Z,6.05
2022-11-05T04:58:57.850Z,5.30
2022-11-05T05:01:25.574Z,4.68
2022-11-05T05:03:54.051Z,5.68
2022-11-05T05:06:21.926Z,5.22
2022-11-05T05:08:50.094Z,6.40
2022-11-05T05:11:19.568Z,4.80
2022-11-05T05:13:46.791Z,5.78
2022-11-05T05:16:24.940Z,4.05
2022-11-05T05:18:52.603Z,4.55
2022-11-05T05:21:39.411Z,5.00
2022-11-05T05:24:14.897Z,5.45
2022-11-05T05:26:43.993Z,6.75
2022-11-05T05:29:11.709Z,4.15
2022-11-05T05:31:38.980Z,6.05
2022-11-05T05:34:07.666Z,4.03
2022-11-05T05:36:34.751Z,4.43
2022-11-05T05:39:01.871Z,4.00
2022-11-05T05:41:28.703Z,4.03
2022-11-05T05:43:55.480Z,4.20
2022-11-05T05:46:22.230Z,5.25
2022-11-05T05:48:50.718Z,5.05
2022-11-05T05:51:18.427Z,3.20
2022-11-05T05:53:45.454Z,4.22
2022-11-05T05:56:15.047Z,3.90
2022-11-05T05:58:42.085Z,4.90
2022-11-05T06:01:18.262Z,4.05
2022-11-05T06:06:21.213Z,4.20
2022-11-05T06:08:48.448Z,3.92
2022-11-05T06:11:15.268Z,4.43
2022-11-05T06:13:42.136Z,4.97
2022-11-05T06:16:09.774Z,4.30
2022-11-05T06:18:37.879Z,3.90
2022-11-05T06:21:06.836Z,4.28
2022-11-05T06:23:35.261Z,4.60
2022-11-05T06:26:07.796Z,3.72
2022-11-05T06:28:35.168Z,3.30
2022-11-05T06:31:02.326Z,3.20
2022-11-05T06:33:29.452Z,4.07
2022-11-05T06:35:59.688Z,3.95
2022-11-05T06:38:26.926Z,5.15
2022-11-05T06:40:53.785Z,2.47
2022-11-05T06:43:20.514Z,2.35
2022-11-05T06:45:47.246Z,2.17
2022-11-05T06:48:14.036Z,2.90
2022-11-05T06:50:45.193Z,4.35
2022-11-05T06:53:12.810Z,2.22
2022-11-05T06:55:40.546Z,3.33
2022-11-05T06:58:07.366Z,2.30
2022-11-05T07:00:34.167Z,3.03
2022-11-05T07:03:05.950Z,4.32
2022-11-05T07:05:33.950Z,4.55
2022-11-05T07:08:00.751Z,1.88
2022-11-05T07:10:27.770Z,2.80
2022-11-05T07:12:54.645Z,4.18
2022-11-05T07:15:21.403Z,4.43
2022-11-05T07:17:48.183Z,3.13
2022-11-05T07:20:14.924Z,2.83
2022-11-05T07:22:41.674Z,2.38
2022-11-05T07:25:09.092Z,5.03
2022-11-05T07:27:40.245Z,3.22
2022-11-05T07:30:10.742Z,3.90
2022-11-05T07:32:39.253Z,4.63
2022-11-05T07:35:07.256Z,3.78
2022-11-05T07:37:41.197Z,2.45
2022-11-05T07:42:35.541Z,5.30
2022-11-05T07:45:02.412Z,2.40
2022-11-05T07:47:29.254Z,2.05
2022-11-05T07:49:55.979Z,3.10
2022-11-05T07:52:22.748Z,2.45
2022-11-05T07:54:49.595Z,3.65
2022-11-05T07:57:16.334Z,2.63
2022-11-05T07:59:43.396Z,3.35
2022-11-05T08:02:11.578Z,2.70
2022-11-05T08:04:40.281Z,4.25
2022-11-05T08:07:07.054Z,2.53
2022-11-05T08:09:33.778Z,3.95
2022-11-05T08:12:03.208Z,4.93
2022-11-05T08:14:30.291Z,2.80
2022-11-05T08:16:58.387Z,3.55
2022-11-05T08:19:25.122Z,4.97
2022-11-05T08:21:51.899Z,4.60
2022-11-05T08:24:18.626Z,3.92
2022-11-05T08:26:45.401Z,5.20
2022-11-05T08:29:12.178Z,3.38
2022-11-05T08:31:38.965Z,5.43
2022-11-05T08:34:05.747Z,2.75
2022-11-05T08:36:34.321Z,3.10
2022-11-05T08:39:01.067Z,4.53
2022-11-05T08:41:27.804Z,6.78
2022-11-05T08:43:57.467Z,2.75
2022-11-05T08:46:24.235Z,3.17
2022-11-05T08:48:51.051Z,2.95
2022-11-05T08:51:17.893Z,3.88
2022-11-05T08:53:44.628Z,2.65
2022-11-05T08:56:11.430Z,3.45
2022-11-05T08:58:38.232Z,3.03
2022-11-05T09:01:05.827Z,2.13
2022-11-05T09:03:32.828Z,2.08
2022-11-05T09:05:59.619Z,3.92
2022-11-05T09:08:26.432Z,3.05
2022-11-05T09:10:53.187Z,2.90
2022-11-05T09:13:20.596Z,4.10
2022-11-05T09:15:51.135Z,1.73
2022-11-05T09:18:19.175Z,3.55
2022-11-05T09:20:46.909Z,2.78
2022-11-05T09:23:15.220Z,3.15
2022-11-05T09:25:42.318Z,2.38
2022-11-05T09:28:20.421Z,2.15
2022-11-05T09:30:52.560Z,2.95
2022-11-05T09:33:21.682Z,2.75
2022-11-05T09:35:51.852Z,3.08
2022-11-05T09:38:19.128Z,4.47
2022-11-05T09:41:30.886Z,1.25
2022-11-05T09:44:10.023Z,2.08
2022-11-05T09:46:48.020Z,2.95
2022-11-05T09:49:27.743Z,1.30
2022-11-05T09:51:56.664Z,1.80
2022-11-05T09:54:26.400Z,3.90
2022-11-05T09:56:55.120Z,1.45
2022-11-05T09:59:45.216Z,2.60
2022-11-05T10:02:18.931Z,2.13
2022-11-05T10:04:50.072Z,2.25
2022-11-05T10:07:21.511Z,3.42
2022-11-05T10:09:53.977Z,3.08
2022-11-05T10:12:34.486Z,2.42
2022-11-05T10:15:14.844Z,4.75
2022-11-05T10:17:47.851Z,3.22
2022-11-05T10:20:18.660Z,1.40
2022-11-05T10:22:49.477Z,2.85
2022-11-05T10:25:19.521Z,4.68
2022-11-05T10:27:54.751Z,2.25
2022-11-05T10:30:22.886Z,3.10
2022-11-05T10:32:54.619Z,1.77
2022-11-05T10:35:24.402Z,2.50
2022-11-05T10:37:53.574Z,3.42
2022-11-05T10:40:37.012Z,3.83
2022-11-05T10:43:34.395Z,3.75
2022-11-05T10:46:23.328Z,2.33
2022-11-05T10:49:08.489Z,5.50
2022-11-05T10:51:35.407Z,5.57
2022-11-05T10:54:13.755Z,3.30
2022-11-05T10:56:41.897Z,3.70
2022-11-05T10:59:29.596Z,3.28
2022-11-05T11:02:23.169Z,1.98
2022-11-05T11:04:53.989Z,2.42
2022-11-05T11:07:24.427Z,3.30
2022-11-05T11:09:52.506Z,4.13
2022-11-05T11:12:27.441Z,2.58
2022-11-05T11:15:02.487Z,2.97
2022-11-05T11:17:31.593Z,3.17
2022-11-05T11:20:14.550Z,3.85
2022-11-05T11:22:41.312Z,3.65
2022-11-05T11:25:39.556Z,2.90
2022-11-05T11:28:14.105Z,4.13
2022-11-05T11:30:48.264Z,3.03
2022-11-05T11:33:21.187Z,1.85
2022-11-05T11:35:51.046Z,3.07
2022-11-05T11:38:18.061Z,3.63
2022-11-05T11:40:45.680Z,2.90
2022-11-05T11:43:28.168Z,2.15
2022-11-05T11:46:00.694Z,2.63
2022-11-05T11:48:33.975Z,2.22
2022-11-05T11:51:18.265Z,1.63
2022-11-05T11:53:48.174Z,3.92
2022-11-05T11:56:18.444Z,2.30
2022-11-05T11:58:46.716Z,3.40
2022-11-05T12:01:44.626Z,2.38
2022-11-05T12:04:24.229Z,4.60
2022-11-05T12:07:18.987Z,2.15
2022-11-05T12:09:58.472Z,2.08
2022-11-05T12:12:52.454Z,2.17
2022-11-05T12:15:38.048Z,3.60
2022-11-05T12:18:30.627Z,2.08
2022-11-05T12:21:41.070Z,3.00
2022-11-05T12:24:34.424Z,3.28
2022-11-05T12:27:03.915Z,2.58
2022-11-05T12:29:53.228Z,2.67
2022-11-05T12:32:35.291Z,2.05
2022-11-05T12:35:35.655Z,2.45
2022-11-05T12:38:30.133Z,2.55
2022-11-05T12:40:59.942Z,3.38
2022-11-05T12:43:53.683Z,2.55
2022-11-05T12:46:34.764Z,3.00
2022-11-05T12:49:34.625Z,1.55
2022-11-05T12:52:32.773Z,3.60
2022-11-05T12:55:14.725Z,1.95
2022-11-05T12:57:44.396Z,2.50
2022-11-05T13:00:21.278Z,2.30
2022-11-05T13:03:19.903Z,5.10
2022-11-05T13:05:54.995Z,2.70
2022-11-05T13:08:42.813Z,1.65
2022-11-05T13:11:44.353Z,1.58
2022-11-05T13:14:19.757Z,2.40
2022-11-05T13:16:53.910Z,1.92
2022-11-05T13:19:35.828Z,0.90
2022-11-05T13:22:20.885Z,3.15
2022-11-05T13:24:55.468Z,1.58
2022-11-05T13:27:40.474Z,2.63
2022-11-05T13:30:13.187Z,3.28
2022-11-05T13:32:43.720Z,3.22
2022-11-05T13:35:22.460Z,2.42
2022-11-05T13:38:13.776Z,2.05
2022-11-05T13:41:12.170Z,1.63
2022-11-05T13:43:53.674Z,1.65
2022-11-05T13:46:38.080Z,2.20
2022-11-05T13:49:24.869Z,2.28
2022-11-05T13:52:00.554Z,1.70
2022-11-05T13:54:52.480Z,1.17
2022-11-05T13:58:16.545Z,1.20
2022-11-05T14:01:07.564Z,3.72
2022-11-05T14:03:34.677Z,1.55
2022-11-05T14:06:09.875Z,1.95
2022-11-05T14:08:42.915Z,2.13
2022-11-05T14:11:23.936Z,1.95
2022-11-05T14:13:56.478Z,2.53
2022-11-05T14:16:26.029Z,2.33
2022-11-05T14:19:18.503Z,1.40
2022-11-05T14:21:52.723Z,1.70
2022-11-05T14:24:22.440Z,2.05
2022-11-05T14:27:01.039Z,2.10
2022-11-05T14:29:47.899Z,1.67
2022-11-05T14:32:17.624Z,2.17
2022-11-05T14:35:07.480Z,5.85
2022-11-05T14:37:41.705Z,1.13
2022-11-05T14:40:26.609Z,1.90
2022-11-05T14:42:56.010Z,2.72
2022-11-05T14:45:35.279Z,2.08
2022-11-05T14:48:08.204Z,1.98
2022-11-05T14:50:41.662Z,3.07
2022-11-05T14:53:34.855Z,3.67
2022-11-05T14:56:14.659Z,1.95
2022-11-05T14:58:43.608Z,2.13
2022-11-05T15:01:13.347Z,2.83
2022-11-05T15:03:45.759Z,1.25
2022-11-05T15:06:32.587Z,1.50
2022-11-05T15:09:25.511Z,3.30
2022-11-05T15:12:34.343Z,1.33
2022-11-05T15:15:04.483Z,3.08
2022-11-05T15:17:38.087Z,2.30
2022-11-05T15:20:17.888Z,2.60
2022-11-05T15:22:58.818Z,3.15
2022-11-05T15:25:45.045Z,2.42
2022-11-05T15:28:22.016Z,2.53
2022-11-05T15:31:22.754Z,3.00
2022-11-05T15:33:49.595Z,2.65
2022-11-05T15:36:27.703Z,2.30
2022-11-05T15:39:15.533Z,2.28
2022-11-05T15:41:42.891Z,2.40
2022-11-05T15:44:27.186Z,2.22
2022-11-05T15:47:14.951Z,2.28
2022-11-05T15:50:14.446Z,2.00
2022-11-05T15:52:51.899Z,5.00
2022-11-05T15:55:24.940Z,2.95
2022-11-05T15:58:00.955Z,2.40
2022-11-05T16:00:30.221Z,2.38
2022-11-05T16:03:00.574Z,2.25
2022-11-05T16:05:33.638Z,3.58
2022-11-05T16:08:01.990Z,2.70
2022-11-05T16:10:36.914Z,2.58
2022-11-05T16:13:34.464Z,4.05
2022-11-05T16:16:30.386Z,3.00
2022-11-05T16:18:57.554Z,3.95
2022-11-05T16:21:24.901Z,5.18
2022-11-05T16:24:00.470Z,3.00
2022-11-05T16:27:01.765Z,3.30
2022-11-05T16:29:33.162Z,3.67
2022-11-05T16:32:02.715Z,4.40
2022-11-05T16:34:32.523Z,3.20
2022-11-05T16:36:59.957Z,3.70
2022-11-05T16:39:27.305Z,3.80
2022-11-05T16:41:54.099Z,2.33
2022-11-05T16:44:21.272Z,2.83
2022-11-05T16:46:49.455Z,3.03
2022-11-05T16:49:17.207Z,3.50
2022-11-05T16:51:44.602Z,2.90
2022-11-05T16:54:11.428Z,5.65
2022-11-05T16:56:41.680Z,2.85
2022-11-05T16:59:12.183Z,4.28
2022-11-05T17:01:41.924Z,3.13
2022-11-05T17:04:11.586Z,4.78
2022-11-05T17:06:38.558Z,7.97
2022-11-05T17:09:05.303Z,5.00
2022-11-05T17:11:32.062Z,5.38
2022-11-05T17:13:58.818Z,3.33
2022-11-05T17:16:26.743Z,3.10
2022-11-05T17:18:53.547Z,4.10
2022-11-05T17:21:20.349Z,3.75
2022-11-05T17:23:47.074Z,3.65
2022-11-05T17:26:14.097Z,5.47
2022-11-05T17:28:41.379Z,4.20
2022-11-05T17:31:12.188Z,4.85
2022-11-05T17:33:39.189Z,5.07
2022-11-05T17:36:12.818Z,4.25
2022-11-05T17:38:39.751Z,4.75
2022-11-05T17:41:14.606Z,3.83
2022-11-05T17:43:42.130Z,4.63
2022-11-05T17:46:11.358Z,4.20
2022-11-05T17:48:38.906Z,3.30
2022-11-05T17:51:09.510Z,3.95
2022-11-05T17:53:36.663Z,5.95
2022-11-05T17:56:11.878Z,3.60
2022-11-05T17:58:38.934Z,4.13
2022-11-05T18:01:08.078Z,4.00
2022-11-05T18:03:35.269Z,4.97
2022-11-05T18:06:03.865Z,3.70
2022-11-05T18:08:31.103Z,3.70
2022-11-05T18:10:58.019Z,3.30
2022-11-05T18:13:25.079Z,5.13
2022-11-05T18:15:53.393Z,3.65
2022-11-05T18:18:20.691Z,2.70
2022-11-05T18:20:47.792Z,4.50
2022-11-05T18:23:14.876Z,3.25
2022-11-05T18:25:42.755Z,3.28
2022-11-05T18:28:10.132Z,3.10
2022-11-05T18:30:39.414Z,3.65
2022-11-05T18:33:06.355Z,3.50
2022-11-05T18:35:33.183Z,3.92
2022-11-05T18:37:59.923Z,3.25
2022-11-05T18:40:27.674Z,3.50
2022-11-05T18:42:54.430Z,3.90
2022-11-05T18:45:25.508Z,4.15
2022-11-05T18:47:55.325Z,2.70
2022-11-05T18:50:22.062Z,4.35
2022-11-05T18:52:48.826Z,4.50
2022-11-05T18:55:15.611Z,5.35
2022-11-05T18:57:42.344Z,5.03
2022-11-05T19:00:09.796Z,6.10
2022-11-05T19:02:36.693Z,4.72
2022-11-05T19:07:50.687Z,4.80
2022-11-05T19:10:17.584Z,4.30
2022-11-05T19:12:44.313Z,4.30
2022-11-05T19:15:11.644Z,4.57
2022-11-05T19:17:38.425Z,4.80
2022-11-05T19:20:05.937Z,7.47
2022-11-05T19:22:33.204Z,5.35
2022-11-05T19:24:59.984Z,5.03
2022-11-05T19:27:26.735Z,5.82
2022-11-05T19:29:53.557Z,5.07
2022-11-05T19:32:21.254Z,4.47
2022-11-05T19:34:48.006Z,6.07
2022-11-05T19:37:14.792Z,4.90
2022-11-05T19:39:41.867Z,6.03
2022-11-05T19:42:08.611Z,4.28
2022-11-05T19:44:35.504Z,4.57
2022-11-05T19:47:02.232Z,5.88
2022-11-05T19:49:29.010Z,5.15
2022-11-05T19:51:56.052Z,4.43
2022-11-05T19:54:22.881Z,7.32
2022-11-05T19:56:51.716Z,7.15
2022-11-05T19:59:18.595Z,8.65
2022-11-05T20:01:45.515Z,4.97
2022-11-05T20:04:12.424Z,5.18
2022-11-05T20:06:40.756Z,4.78
2022-11-05T20:09:25.800Z,5.20
2022-11-05T20:11:54.472Z,6.03
2022-11-05T20:14:21.873Z,6.35
2022-11-05T20:16:49.679Z,6.55
2022-11-05T20:19:19.314Z,7.13
2022-11-05T20:21:46.733Z,4.72
2022-11-05T20:24:20.559Z,5.80
2022-11-05T20:26:50.499Z,4.95
2022-11-05T20:29:17.394Z,4.85
2022-11-05T20:31:44.127Z,6.25
2022-11-05T20:34:10.923Z,4.55
2022-11-05T20:36:39.579Z,4.93
2022-11-05T20:39:06.315Z,6.70
2022-11-05T20:41:33.272Z,6.38
2022-11-05T20:44:00.125Z,6.47
2022-11-05T20:46:26.944Z,7.22
2022-11-05T20:48:54.502Z,8.70
2022-11-05T20:51:24.157Z,7.93
2022-11-05T20:53:55.457Z,7.75
2022-11-05T20:56:25.254Z,8.68
2022-11-05T20:58:52.631Z,8.13
2022-11-05T21:01:20.360Z,9.73
2022-11-05T21:03:47.881Z,8.48
2022-11-05T21:06:15.169Z,12.45
2022-11-05T21:08:42.524Z,7.25
2022-11-05T21:11:10.616Z,9.07
2022-11-05T21:13:37.707Z,9.88
2022-11-05T21:16:06.681Z,8.68
2022-11-05T21:18:35.593Z,10.18
2022-11-05T21:21:07.424Z,8.75
2022-11-05T21:23:34.415Z,9.63
2022-11-05T21:26:08.968Z,7.45
2022-11-05T21:28:38.528Z,9.57
2022-11-05T21:31:07.346Z,10.30
2022-11-05T21:33:34.800Z,11.30
2022-11-05T21:36:07.213Z,9.13
2022-11-05T21:38:33.979Z,6.43
2022-11-05T21:41:02.884Z,8.65
2022-11-05T21:43:29.840Z,9.68
2022-11-05T21:46:00.307Z,10.80
2022-11-05T21:48:27.150Z,12.02
2022-11-05T21:51:13.210Z,11.77
2022-11-05T21:53:58.686Z,11.73
2022-11-05T21:56:45.583Z,7.47
2022-11-05T21:59:33.366Z,7.50
2022-11-05T22:02:03.402Z,7.63
2022-11-05T22:04:39.281Z,9.57
2022-11-05T22:07:07.051Z,6.75
2022-11-05T22:09:34.155Z,6.10
2022-11-05T22:12:01.493Z,7.28
2022-11-05T22:14:28.287Z,7.30
2022-11-05T22:16:56.087Z,5.18
2022-11-05T22:19:23.189Z,6.63
2022-11-05T22:21:50.035Z,6.50
2022-11-05T22:24:17.821Z,5.18
2022-11-05T22:26:45.474Z,6.88
2022-11-05T22:29:12.890Z,6.72
2022-11-05T22:31:40.143Z,7.40
2022-11-05T22:34:07.679Z,5.80
2022-11-05T22:36:34.902Z,6.90
2022-11-05T22:39:02.280Z,6.55
2022-11-05T22:41:29.452Z,8.75
2022-11-05T22:43:56.312Z,6.07
2022-11-05T22:46:24.756Z,6.25
2022-11-05T22:48:52.076Z,6.57
2022-11-05T22:51:22.503Z,8.10
2022-11-05T22:53:49.730Z,5.85
2022-11-05T22:56:19.375Z,7.22
2022-11-05T22:58:46.908Z,6.28
2022-11-05T23:01:14.104Z,7.05
2022-11-05T23:03:43.066Z,9.43
2022-11-05T23:06:41.197Z,7.30
2022-11-05T23:09:36.102Z,7.15
2022-11-05T23:12:05.025Z,6.72
2022-11-05T23:14:31.893Z,8.18
2022-11-05T23:17:17.363Z,8.20
2022-11-05T23:20:02.893Z,7.90
2022-11-05T23:22:50.160Z,6.82
2022-11-05T23:25:19.789Z,8.27
2022-11-05T23:27:48.844Z,8.05
2022-11-05T23:30:19.110Z,7.55
2022-11-05T23:32:45.931Z,6.55
2022-11-05T23:35:12.955Z,8.52
2022-11-05T23:37:58.823Z,7.25
2022-11-05T23:40:28.627Z,9.10
2022-11-05T23:43:14.743Z,5.88
2022-11-05T23:46:03.031Z,6.22
2022-11-05T23:48:36.177Z,6.03
2022-11-05T23:51:11.323Z,6.20
2022-11-05T23:53:40.462Z,6.35
2022-11-05T23:56:11.507Z,5.60
2022-11-05T23:58:40.104Z,8.27
